createdAt,value
2019-01-27T00:00:17.762Z,1.80
2019-01-27T00:02:45.131Z,1.30
2019-01-27T00:05:12.610Z,1.37
2019-01-27T00:07:39.979Z,1.73
2019-01-27T00:10:08.929Z,1.33
2019-01-27T00:12:36.474Z,2.00
2019-01-27T00:15:06.137Z,0.88
2019-01-27T00:17:33.513Z,1.10
2019-01-27T00:20:00.897Z,1.30
2019-01-27T00:22:28.310Z,1.53
2019-01-27T00:24:55.762Z,1.20
2019-01-27T00:27:23.189Z,1.30
2019-01-27T00:29:50.586Z,1.07
2019-01-27T00:32:17.998Z,2.33
2019-01-27T00:34:45.383Z,1.30
2019-01-27T00:37:12.795Z,1.73
2019-01-27T00:39:40.213Z,1.07
2019-01-27T00:42:07.654Z,1.10
2019-01-27T00:44:35.032Z,1.33
2019-01-27T00:47:02.454Z,1.40
2019-01-27T00:49:29.839Z,1.20
2019-01-27T00:51:57.264Z,1.10
2019-01-27T00:54:24.646Z,0.90
2019-01-27T00:56:52.060Z,1.20
2019-01-27T00:59:20.337Z,1.43
2019-01-27T01:01:47.798Z,1.70
2019-01-27T01:04:15.172Z,1.00
2019-01-27T01:06:42.726Z,1.27
2019-01-27T01:09:10.178Z,1.13
2019-01-27T01:11:37.585Z,1.00
2019-01-27T01:14:05.033Z,1.10
2019-01-27T01:16:32.445Z,1.10
2019-01-27T01:18:59.829Z,1.00
2019-01-27T01:21:27.324Z,1.00
2019-01-27T01:23:54.706Z,1.10
2019-01-27T01:26:22.117Z,1.15
2019-01-27T01:28:49.498Z,1.90
2019-01-27T01:31:17.086Z,1.17
2019-01-27T01:33:44.469Z,1.17
2019-01-27T01:36:11.852Z,1.50
2019-01-27T01:38:39.326Z,1.03
2019-01-27T01:41:06.706Z,1.07
2019-01-27T01:43:34.126Z,1.30
2019-01-27T01:46:01.503Z,0.97
2019-01-27T01:48:29.008Z,1.63
2019-01-27T01:50:56.454Z,1.07
2019-01-27T01:53:23.867Z,0.97
2019-01-27T01:55:51.315Z,1.00
2019-01-27T01:58:18.730Z,0.83
2019-01-27T02:00:46.110Z,0.90
2019-01-27T02:03:13.518Z,1.10
2019-01-27T02:05:40.978Z,0.90
2019-01-27T02:08:08.377Z,1.10
2019-01-27T02:10:35.754Z,1.20
2019-01-27T02:13:03.240Z,1.07
2019-01-27T02:15:32.159Z,1.20
2019-01-27T02:17:59.643Z,1.17
2019-01-27T02:20:27.098Z,0.97
2019-01-27T02:22:54.502Z,1.20
2019-01-27T02:25:21.970Z,1.10
2019-01-27T02:27:49.382Z,1.33
2019-01-27T02:30:17.339Z,0.90
2019-01-27T02:32:44.809Z,1.00
2019-01-27T02:35:12.266Z,1.10
2019-01-27T02:37:39.686Z,1.67
2019-01-27T02:40:08.598Z,1.00
2019-01-27T02:42:36.005Z,1.30
2019-01-27T02:45:05.054Z,1.10
2019-01-27T02:47:32.447Z,1.13
2019-01-27T02:49:59.841Z,1.10
2019-01-27T02:52:27.289Z,0.97
2019-01-27T02:54:54.701Z,0.90
2019-01-27T02:57:22.080Z,1.20
2019-01-27T02:59:49.510Z,0.80
2019-01-27T03:02:16.887Z,1.00
2019-01-27T03:04:44.299Z,1.07
2019-01-27T03:07:13.395Z,1.07
2019-01-27T03:09:40.878Z,0.90
2019-01-27T03:12:08.321Z,1.30
2019-01-27T03:14:35.735Z,0.90
2019-01-27T03:17:03.386Z,0.90
2019-01-27T03:19:30.801Z,0.90
2019-01-27T03:21:58.194Z,0.90
2019-01-27T03:24:25.592Z,1.03
2019-01-27T03:26:52.982Z,0.90
2019-01-27T03:29:20.463Z,1.03
2019-01-27T03:31:47.854Z,1.03
2019-01-27T03:34:16.195Z,0.93
2019-01-27T03:36:43.579Z,0.60
2019-01-27T03:39:11.062Z,0.90
2019-01-27T03:41:38.515Z,0.73
2019-01-27T03:44:06.007Z,0.93
2019-01-27T03:46:33.393Z,0.90
2019-01-27T03:49:00.799Z,0.87
2019-01-27T03:51:28.243Z,1.07
2019-01-27T03:53:55.691Z,0.90
2019-01-27T03:56:23.175Z,0.80
2019-01-27T03:58:50.555Z,0.90
2019-01-27T04:01:18.037Z,1.00
2019-01-27T04:03:45.417Z,0.80
2019-01-27T04:06:12.838Z,0.73
2019-01-27T04:08:40.218Z,0.77
2019-01-27T04:11:07.631Z,0.77
2019-01-27T04:13:35.004Z,0.80
2019-01-27T04:16:02.409Z,0.80
2019-01-27T04:18:29.866Z,0.77
2019-01-27T04:20:57.279Z,1.30
2019-01-27T04:23:24.730Z,0.80
2019-01-27T04:25:52.214Z,0.80
2019-01-27T04:28:19.592Z,0.90
2019-01-27T04:30:47.014Z,0.83
2019-01-27T04:33:14.386Z,0.80
2019-01-27T04:35:41.803Z,0.73
2019-01-27T04:38:09.249Z,0.90
2019-01-27T04:40:36.664Z,0.90
2019-01-27T04:43:04.109Z,0.93
2019-01-27T04:45:33.152Z,0.70
2019-01-27T04:48:00.542Z,0.70
2019-01-27T04:50:28.024Z,0.83
2019-01-27T04:52:55.474Z,0.90
2019-01-27T04:55:22.960Z,0.60
2019-01-27T04:57:50.341Z,0.80
2019-01-27T05:00:26.870Z,0.80
2019-01-27T05:02:56.044Z,0.80
2019-01-27T05:05:23.454Z,0.70
2019-01-27T05:07:50.911Z,0.67
2019-01-27T05:10:18.317Z,0.70
2019-01-27T05:12:45.703Z,1.00
2019-01-27T05:15:14.173Z,0.93
2019-01-27T05:17:41.646Z,0.70
2019-01-27T05:20:10.412Z,0.90
2019-01-27T05:22:37.868Z,0.77
2019-01-27T05:25:06.541Z,0.80
2019-01-27T05:27:34.082Z,0.70
2019-01-27T05:30:01.472Z,1.00
2019-01-27T05:32:28.878Z,0.70
2019-01-27T05:34:56.253Z,0.80
2019-01-27T05:37:23.679Z,0.80
2019-01-27T05:39:51.058Z,0.70
2019-01-27T05:42:18.473Z,0.77
2019-01-27T05:44:45.858Z,0.90
2019-01-27T05:47:13.275Z,0.80
2019-01-27T05:49:40.660Z,0.70
2019-01-27T05:52:08.077Z,0.80
2019-01-27T05:54:35.464Z,0.60
2019-01-27T05:57:02.873Z,0.60
2019-01-27T05:59:30.253Z,0.70
2019-01-27T06:01:57.669Z,0.60
2019-01-27T06:04:25.055Z,0.80
2019-01-27T06:06:52.460Z,0.70
2019-01-27T06:09:19.844Z,0.70
2019-01-27T06:11:47.262Z,0.70
2019-01-27T06:14:14.647Z,0.70
2019-01-27T06:16:42.066Z,0.70
2019-01-27T06:19:09.454Z,0.73
2019-01-27T06:21:36.881Z,0.70
2019-01-27T06:24:04.325Z,0.70
2019-01-27T06:26:31.806Z,0.73
2019-01-27T06:28:59.197Z,0.60
2019-01-27T06:31:26.693Z,0.80
2019-01-27T06:33:55.343Z,0.80
2019-01-27T06:36:22.835Z,0.70
2019-01-27T06:38:50.220Z,0.60
2019-01-27T06:41:17.641Z,0.50
2019-01-27T06:43:45.034Z,0.70
2019-01-27T06:46:12.439Z,0.87
2019-01-27T06:48:39.821Z,0.80
2019-01-27T06:51:07.232Z,0.63
2019-01-27T06:53:34.611Z,0.60
2019-01-27T06:56:02.095Z,0.73
2019-01-27T06:58:31.114Z,0.60
2019-01-27T07:01:09.389Z,0.90
2019-01-27T07:03:38.414Z,0.60
2019-01-27T07:06:22.628Z,0.70
2019-01-27T07:08:57.972Z,0.77
2019-01-27T07:11:30.145Z,0.77
2019-01-27T07:14:08.278Z,0.90
2019-01-27T07:16:46.562Z,0.93
2019-01-27T07:19:15.547Z,0.67
2019-01-27T07:21:44.603Z,0.90
2019-01-27T07:24:16.290Z,0.73
2019-01-27T07:26:54.331Z,0.90
2019-01-27T07:29:26.324Z,0.80
2019-01-27T07:31:55.379Z,0.70
2019-01-27T07:34:24.396Z,0.73
2019-01-27T07:36:53.459Z,0.73
2019-01-27T07:39:25.458Z,0.80
2019-01-27T07:41:54.533Z,0.70
2019-01-27T07:44:26.498Z,0.63
2019-01-27T07:46:55.552Z,0.70
2019-01-27T07:49:27.277Z,0.60
2019-01-27T07:51:59.048Z,0.70
2019-01-27T07:54:28.072Z,0.77
2019-01-27T07:57:00.060Z,0.67
2019-01-27T07:59:32.053Z,0.60
2019-01-27T08:02:07.110Z,0.70
2019-01-27T08:04:47.763Z,0.77
2019-01-27T08:07:25.520Z,0.70
2019-01-27T08:09:54.545Z,0.90
2019-01-27T08:12:23.595Z,0.80
2019-01-27T08:14:52.615Z,0.90
2019-01-27T08:17:21.655Z,1.03
2019-01-27T08:19:50.680Z,1.00
2019-01-27T08:22:25.690Z,0.70
2019-01-27T08:25:13.021Z,1.07
2019-01-27T08:27:42.161Z,0.90
2019-01-27T08:30:22.028Z,0.90
2019-01-27T08:32:53.686Z,0.70
2019-01-27T08:35:22.720Z,0.67
2019-01-27T08:38:08.012Z,0.90
2019-01-27T08:40:39.568Z,1.20
2019-01-27T08:43:08.623Z,0.90
2019-01-27T08:45:43.348Z,1.00
2019-01-27T08:48:10.753Z,1.03
2019-01-27T08:50:38.206Z,0.90
2019-01-27T08:53:05.686Z,0.80
2019-01-27T08:55:33.076Z,0.90
2019-01-27T08:58:00.456Z,1.57
2019-01-27T09:00:29.520Z,0.73
2019-01-27T09:03:01.221Z,0.80
2019-01-27T09:05:30.284Z,0.70
2019-01-27T09:08:02.002Z,0.90
2019-01-27T09:10:31.129Z,1.35
2019-01-27T09:13:15.014Z,1.50
2019-01-27T09:15:52.958Z,1.27
2019-01-27T09:18:24.761Z,1.40
2019-01-27T09:21:05.566Z,3.23
2019-01-27T09:23:51.078Z,2.20
2019-01-27T09:26:28.950Z,1.37
2019-01-27T09:29:00.971Z,1.50
2019-01-27T09:31:35.881Z,1.23
2019-01-27T09:34:13.143Z,2.13
2019-01-27T09:36:56.214Z,1.30
2019-01-27T09:39:25.291Z,1.83
2019-01-27T09:42:10.541Z,1.43
2019-01-27T09:44:42.366Z,1.30
2019-01-27T09:47:14.194Z,1.23
2019-01-27T09:49:49.076Z,1.37
2019-01-27T09:52:34.515Z,2.37
2019-01-27T09:55:05.981Z,1.17
2019-01-27T09:57:35.006Z,1.57
2019-01-27T10:00:07.015Z,1.40
2019-01-27T10:02:41.695Z,2.17
2019-01-27T10:05:11.018Z,1.37
2019-01-27T10:07:56.626Z,1.77
2019-01-27T10:10:41.802Z,1.60
2019-01-27T10:13:10.825Z,1.37
2019-01-27T10:15:42.641Z,1.53
2019-01-27T10:18:11.664Z,2.00
2019-01-27T10:20:46.253Z,1.43
2019-01-27T10:23:30.417Z,1.73
2019-01-27T10:26:02.275Z,2.13
2019-01-27T10:28:40.170Z,2.27
2019-01-27T10:31:09.300Z,2.53
2019-01-27T10:33:41.038Z,2.43
2019-01-27T10:36:25.771Z,2.40
2019-01-27T10:39:00.568Z,2.70
2019-01-27T10:41:29.634Z,2.23
2019-01-27T10:44:01.641Z,2.60
2019-01-27T10:46:30.684Z,2.27
2019-01-27T10:48:59.704Z,2.97
2019-01-27T10:51:31.913Z,3.27
2019-01-27T10:54:03.948Z,3.50
2019-01-27T10:56:33.000Z,2.80
2019-01-27T10:59:04.706Z,3.13
2019-01-27T11:01:36.832Z,5.50
2019-01-27T11:04:17.965Z,3.60
2019-01-27T11:06:47.097Z,2.90
2019-01-27T11:09:32.259Z,2.93
2019-01-27T11:12:10.521Z,4.17
2019-01-27T11:14:39.543Z,3.63
2019-01-27T11:17:21.020Z,2.80
2019-01-27T11:20:02.372Z,3.40
2019-01-27T11:22:31.430Z,3.23
2019-01-27T11:25:03.536Z,3.40
2019-01-27T11:27:44.420Z,3.80
2019-01-27T11:30:15.021Z,4.00
2019-01-27T11:32:44.074Z,3.53
2019-01-27T11:35:13.174Z,3.60
2019-01-27T11:37:45.271Z,3.70
2019-01-27T11:40:20.221Z,3.10
2019-01-27T11:43:05.692Z,3.07
2019-01-27T11:45:40.260Z,3.00
2019-01-27T11:48:12.327Z,3.03
2019-01-27T11:50:41.657Z,4.90
2019-01-27T11:53:09.279Z,4.00
2019-01-27T11:55:36.665Z,4.53
2019-01-27T11:58:04.360Z,4.13
2019-01-27T12:00:33.453Z,4.70
2019-01-27T12:03:00.862Z,3.83
2019-01-27T12:05:28.325Z,3.93
2019-01-27T12:07:55.743Z,4.37
2019-01-27T12:10:23.137Z,3.50
2019-01-27T12:12:50.566Z,4.00
2019-01-27T12:15:19.069Z,4.63
2019-01-27T12:17:46.502Z,4.03
2019-01-27T12:20:14.262Z,3.10
2019-01-27T12:22:41.672Z,4.13
2019-01-27T12:25:15.948Z,3.50
2019-01-27T12:27:43.536Z,3.53
2019-01-27T12:30:12.288Z,3.10
2019-01-27T12:32:39.750Z,3.33
2019-01-27T12:35:08.003Z,3.50
2019-01-27T12:37:35.416Z,3.13
2019-01-27T12:40:02.869Z,2.80
2019-01-27T12:42:30.293Z,2.83
2019-01-27T12:44:57.682Z,3.87
2019-01-27T12:47:25.076Z,3.40
2019-01-27T12:49:52.496Z,3.07
2019-01-27T12:52:19.888Z,3.47
2019-01-27T12:54:47.312Z,3.00
2019-01-27T12:57:14.700Z,3.30
2019-01-27T12:59:42.113Z,3.43
2019-01-27T13:02:09.577Z,2.80
2019-01-27T13:04:37.081Z,4.27
2019-01-27T13:07:04.558Z,3.47
2019-01-27T13:09:31.980Z,3.20
2019-01-27T13:11:59.482Z,3.40
2019-01-27T13:14:26.901Z,3.50
2019-01-27T13:16:54.282Z,3.27
2019-01-27T13:19:21.703Z,2.83
2019-01-27T13:21:49.087Z,3.40
2019-01-27T13:24:16.987Z,3.73
2019-01-27T13:26:44.425Z,3.93
2019-01-27T13:29:11.850Z,3.20
2019-01-27T13:31:39.238Z,2.23
2019-01-27T13:34:06.821Z,3.50
2019-01-27T13:36:34.387Z,3.20
2019-01-27T13:39:01.804Z,2.50
2019-01-27T13:41:29.179Z,3.83
2019-01-27T13:43:56.664Z,3.33
2019-01-27T13:46:24.045Z,3.37
2019-01-27T13:48:51.541Z,3.13
2019-01-27T13:51:18.935Z,3.07
2019-01-27T13:53:46.418Z,3.70
2019-01-27T13:56:14.064Z,3.60
2019-01-27T13:58:41.507Z,3.20
2019-01-27T14:01:08.886Z,3.20
2019-01-27T14:03:36.317Z,3.70
2019-01-27T14:06:03.769Z,3.20
2019-01-27T14:08:31.187Z,2.90
2019-01-27T14:10:58.666Z,3.27
2019-01-27T14:13:26.061Z,4.20
2019-01-27T14:15:53.457Z,3.40
2019-01-27T14:18:20.836Z,3.13
2019-01-27T14:20:48.253Z,2.93
2019-01-27T14:23:15.633Z,2.87
2019-01-27T14:25:43.039Z,3.40
2019-01-27T14:28:10.516Z,3.67
2019-01-27T14:30:39.587Z,3.40
2019-01-27T14:33:07.036Z,3.63
2019-01-27T14:35:34.629Z,2.77
2019-01-27T14:38:01.996Z,3.00
2019-01-27T14:40:30.098Z,3.37
2019-01-27T14:42:57.646Z,3.00
2019-01-27T14:45:26.475Z,2.60
2019-01-27T14:47:53.883Z,3.00
2019-01-27T14:50:25.655Z,3.23
2019-01-27T14:52:53.050Z,3.80
2019-01-27T14:55:20.529Z,3.10
2019-01-27T14:57:48.493Z,2.33
2019-01-27T15:00:17.490Z,3.70
2019-01-27T15:02:44.885Z,3.10
2019-01-27T15:05:12.869Z,2.70
2019-01-27T15:07:40.317Z,2.53
2019-01-27T15:10:09.283Z,3.20
2019-01-27T15:12:36.690Z,2.50
2019-01-27T15:15:05.857Z,2.80
2019-01-27T15:17:33.252Z,2.80
2019-01-27T15:20:00.675Z,3.07
2019-01-27T15:22:28.134Z,4.00
2019-01-27T15:24:55.621Z,2.80
2019-01-27T15:27:23.009Z,3.17
2019-01-27T15:29:50.489Z,3.17
2019-01-27T15:32:17.837Z,3.63
2019-01-27T15:34:45.212Z,2.73
2019-01-27T15:37:12.629Z,2.73
2019-01-27T15:39:40.023Z,3.67
2019-01-27T15:42:07.520Z,2.55
2019-01-27T15:44:50.263Z,2.80
2019-01-27T15:47:17.676Z,2.10
2019-01-27T15:49:45.119Z,2.43
2019-01-27T15:52:12.541Z,2.97
2019-01-27T15:54:40.042Z,3.10
2019-01-27T15:57:07.453Z,3.00
2019-01-27T15:59:34.829Z,2.93
2019-01-27T16:02:02.287Z,3.13
2019-01-27T16:04:29.732Z,3.20
2019-01-27T16:06:57.180Z,3.50
2019-01-27T16:09:24.572Z,4.27
2019-01-27T16:11:52.090Z,3.40
2019-01-27T16:14:19.522Z,3.10
2019-01-27T16:16:46.974Z,2.90
2019-01-27T16:19:14.421Z,2.37
2019-01-27T16:21:41.842Z,2.60
2019-01-27T16:24:10.878Z,2.30
2019-01-27T16:26:38.433Z,2.27
2019-01-27T16:29:05.817Z,2.67
2019-01-27T16:31:34.879Z,2.80
2019-01-27T16:34:09.614Z,2.43
2019-01-27T16:36:37.037Z,3.60
2019-01-27T16:39:05.966Z,3.60
2019-01-27T16:41:42.811Z,2.10
2019-01-27T16:44:10.277Z,2.40
2019-01-27T16:46:37.689Z,3.10
2019-01-27T16:49:05.436Z,2.70
2019-01-27T16:51:32.852Z,3.20
2019-01-27T16:54:00.306Z,3.00
2019-01-27T16:56:27.700Z,4.10
2019-01-27T16:58:55.108Z,3.43
2019-01-27T17:01:22.492Z,2.97
2019-01-27T17:03:49.977Z,4.00
2019-01-27T17:06:17.389Z,4.40
2019-01-27T17:08:44.808Z,4.00
2019-01-27T17:11:12.299Z,3.70
2019-01-27T17:13:39.720Z,4.23
2019-01-27T17:16:07.285Z,3.30
2019-01-27T17:18:34.877Z,3.50
2019-01-27T17:21:02.333Z,4.93
2019-01-27T17:23:29.818Z,3.97
2019-01-27T17:25:57.205Z,3.47
2019-01-27T17:28:24.628Z,3.00
2019-01-27T17:30:52.015Z,3.30
2019-01-27T17:33:19.431Z,3.73
2019-01-27T17:35:46.895Z,3.97
2019-01-27T17:38:14.370Z,3.30
2019-01-27T17:40:41.897Z,3.40
2019-01-27T17:43:09.309Z,3.90
2019-01-27T17:45:36.713Z,3.03
2019-01-27T17:48:04.497Z,3.90
2019-01-27T17:50:31.881Z,4.03
2019-01-27T17:52:59.289Z,3.73
2019-01-27T17:55:42.889Z,3.00
2019-01-27T17:58:25.717Z,2.40
2019-01-27T18:00:54.751Z,3.00
2019-01-27T18:03:40.147Z,2.63
2019-01-27T18:06:25.681Z,3.73
2019-01-27T18:08:54.783Z,3.07
2019-01-27T18:11:23.822Z,2.50
2019-01-27T18:13:51.905Z,2.80
2019-01-27T18:16:19.288Z,2.20
2019-01-27T18:18:46.711Z,2.00
2019-01-27T18:21:14.079Z,2.27
2019-01-27T18:23:41.564Z,2.87
2019-01-27T18:26:09.036Z,2.13
2019-01-27T18:28:36.624Z,2.30
2019-01-27T18:31:04.278Z,2.40
2019-01-27T18:33:31.682Z,2.63
2019-01-27T18:35:59.058Z,1.85
2019-01-27T18:38:26.460Z,2.37
2019-01-27T18:40:53.881Z,2.07
2019-01-27T18:43:21.370Z,2.47
2019-01-27T18:45:48.800Z,1.90
2019-01-27T18:48:16.240Z,1.80
2019-01-27T18:50:43.656Z,3.00
2019-01-27T18:53:18.746Z,2.10
2019-01-27T18:55:54.059Z,2.00
2019-01-27T18:58:39.535Z,2.80
2019-01-27T19:01:21.411Z,2.17
2019-01-27T19:03:53.214Z,2.00
2019-01-27T19:06:28.001Z,1.90
2019-01-27T19:09:00.000Z,1.33
2019-01-27T19:11:32.012Z,2.00
2019-01-27T19:14:04.025Z,1.70
2019-01-27T19:16:45.065Z,1.57
2019-01-27T19:19:17.194Z,1.30
2019-01-27T19:21:49.182Z,1.93
2019-01-27T19:24:20.951Z,1.40
2019-01-27T19:26:49.969Z,2.15
2019-01-27T19:29:21.729Z,1.57
2019-01-27T19:31:59.794Z,1.57
2019-01-27T19:34:28.840Z,2.00
2019-01-27T19:37:00.305Z,1.90
2019-01-27T19:39:38.310Z,1.70
2019-01-27T19:42:10.053Z,1.37
2019-01-27T19:44:39.099Z,1.87
2019-01-27T19:47:08.131Z,1.63
2019-01-27T19:49:46.286Z,2.07
2019-01-27T19:52:17.775Z,1.40
2019-01-27T19:54:46.820Z,1.60
2019-01-27T19:57:21.639Z,1.70
2019-01-27T20:00:03.039Z,1.20
2019-01-27T20:02:35.098Z,1.70
2019-01-27T20:05:13.161Z,1.53
2019-01-27T20:07:51.226Z,1.30
2019-01-27T20:10:36.829Z,1.60
2019-01-27T20:13:08.735Z,1.03
2019-01-27T20:15:53.509Z,1.40
2019-01-27T20:18:22.530Z,1.53
2019-01-27T20:21:00.404Z,1.10
2019-01-27T20:23:41.251Z,1.20
2019-01-27T20:26:13.281Z,1.10
2019-01-27T20:28:45.081Z,1.23
2019-01-27T20:31:14.145Z,1.27
2019-01-27T20:33:59.631Z,1.37
2019-01-27T20:36:31.640Z,1.10
2019-01-27T20:39:06.244Z,1.30
2019-01-27T20:41:35.305Z,1.30
2019-01-27T20:44:19.664Z,1.00
2019-01-27T20:46:51.764Z,1.30
2019-01-27T20:49:23.777Z,1.30
2019-01-27T20:51:59.775Z,1.20
2019-01-27T20:54:37.776Z,1.63
2019-01-27T20:57:15.872Z,1.33
2019-01-27T20:59:47.587Z,1.27
2019-01-27T21:02:19.689Z,1.30
2019-01-27T21:05:03.686Z,1.50
2019-01-27T21:07:35.463Z,1.60
2019-01-27T21:10:04.559Z,1.33
2019-01-27T21:12:33.608Z,2.57
2019-01-27T21:15:05.583Z,1.50
2019-01-27T21:17:34.639Z,1.50
2019-01-27T21:20:02.806Z,2.37
2019-01-27T21:22:30.221Z,2.07
2019-01-27T21:24:57.599Z,1.63
2019-01-27T21:27:25.021Z,1.23
2019-01-27T21:29:52.398Z,1.00
2019-01-27T21:32:20.554Z,1.07
2019-01-27T21:34:47.927Z,1.40
2019-01-27T21:37:15.417Z,1.53
2019-01-27T21:39:42.804Z,1.63
2019-01-27T21:42:10.212Z,1.30
2019-01-27T21:44:37.755Z,1.60
2019-01-27T21:47:05.170Z,2.03
2019-01-27T21:49:32.558Z,1.80
2019-01-27T21:51:59.970Z,1.67
2019-01-27T21:54:27.427Z,2.47
2019-01-27T21:56:54.801Z,1.20
2019-01-27T21:59:22.215Z,1.77
2019-01-27T22:01:49.600Z,2.63
2019-01-27T22:04:17.012Z,1.23
2019-01-27T22:06:44.408Z,1.67
2019-01-27T22:09:11.954Z,1.50
2019-01-27T22:11:39.379Z,1.33
2019-01-27T22:14:06.850Z,1.70
2019-01-27T22:16:34.256Z,1.43
2019-01-27T22:19:01.683Z,1.40
2019-01-27T22:21:29.062Z,1.70
2019-01-27T22:23:56.493Z,1.30
2019-01-27T22:26:23.878Z,1.50
2019-01-27T22:28:51.300Z,2.13
2019-01-27T22:31:18.692Z,1.50
2019-01-27T22:33:46.097Z,1.57
2019-01-27T22:36:13.483Z,2.50
2019-01-27T22:38:40.898Z,2.40
2019-01-27T22:41:08.281Z,1.70
2019-01-27T22:43:35.680Z,1.70
2019-01-27T22:46:03.065Z,1.40
2019-01-27T22:48:30.504Z,1.40
2019-01-27T22:50:57.883Z,1.33
2019-01-27T22:53:25.290Z,1.40
2019-01-27T22:55:52.681Z,1.70
2019-01-27T22:58:20.095Z,1.30
2019-01-27T23:00:58.918Z,1.40
2019-01-27T23:03:26.692Z,1.40
2019-01-27T23:05:54.144Z,1.60
2019-01-27T23:08:21.624Z,1.40
2019-01-27T23:10:49.020Z,1.77
2019-01-27T23:13:16.429Z,1.50
2019-01-27T23:15:43.919Z,1.60
2019-01-27T23:18:11.390Z,1.70
2019-01-27T23:20:38.766Z,1.73
2019-01-27T23:23:06.168Z,1.70
2019-01-27T23:25:33.553Z,1.60
2019-01-27T23:28:01.034Z,1.00
2019-01-27T23:30:28.426Z,1.87
2019-01-27T23:32:55.807Z,1.70
2019-01-27T23:35:23.204Z,1.60
2019-01-27T23:37:50.724Z,1.53
2019-01-27T23:40:18.200Z,1.40
2019-01-27T23:42:45.583Z,1.43
2019-01-27T23:45:13.361Z,1.77
2019-01-27T23:47:40.823Z,1.60
2019-01-27T23:50:09.010Z,1.87
2019-01-27T23:52:36.464Z,1.50
2019-01-27T23:55:04.919Z,1.70
2019-01-27T23:57:32.299Z,1.30
2019-01-27T23:59:59.700Z,1.47
